sensor_id;sensor_type;location;lat;lon;timestamp;temperature;humidity
41628;DHT22;27321;50.816;6.054;2023-02-28T00:02:42;3.00;61.20
41628;DHT22;27321;50.816;6.054;2023-02-28T00:05:44;3.00;60.80
41628;DHT22;27321;50.816;6.054;2023-02-28T00:08:45;3.00;61.00
41628;DHT22;27321;50.816;6.054;2023-02-28T00:11:46;3.00;61.20
41628;DHT22;27321;50.816;6.054;2023-02-28T00:14:47;3.00;61.40
41628;DHT22;27321;50.816;6.054;2023-02-28T00:17:48;3.00;60.80
41628;DHT22;27321;50.816;6.054;2023-02-28T00:20:49;2.90;61.10
41628;DHT22;27321;50.816;6.054;2023-02-28T00:23:50;2.80;61.20
41628;DHT22;27321;50.816;6.054;2023-02-28T00:26:51;2.90;61.40
41628;DHT22;27321;50.816;6.054;2023-02-28T00:29:52;2.80;61.30
41628;DHT22;27321;50.816;6.054;2023-02-28T00:32:54;2.80;61.40
41628;DHT22;27321;50.816;6.054;2023-02-28T00:36:10;2.80;61.50
41628;DHT22;27321;50.816;6.054;2023-02-28T00:39:12;2.70;61.80
41628;DHT22;27321;50.816;6.054;2023-02-28T00:42:13;2.70;61.50
41628;DHT22;27321;50.816;6.054;2023-02-28T00:45:14;2.60;61.70
41628;DHT22;27321;50.816;6.054;2023-02-28T00:48:15;2.60;61.80
41628;DHT22;27321;50.816;6.054;2023-02-28T00:51:16;2.60;61.80
41628;DHT22;27321;50.816;6.054;2023-02-28T00:54:18;2.60;61.70
41628;DHT22;27321;50.816;6.054;2023-02-28T00:57:23;2.60;61.60
41628;DHT22;27321;50.816;6.054;2023-02-28T01:00:24;2.60;61.30
41628;DHT22;27321;50.816;6.054;2023-02-28T01:03:25;2.60;61.40
41628;DHT22;27321;50.816;6.054;2023-02-28T01:06:26;2.50;61.40
41628;DHT22;27321;50.816;6.054;2023-02-28T01:09:27;2.50;61.30
41628;DHT22;27321;50.816;6.054;2023-02-28T01:12:28;2.50;61.60
41628;DHT22;27321;50.816;6.054;2023-02-28T01:15:29;2.50;61.70
41628;DHT22;27321;50.816;6.054;2023-02-28T01:18:32;2.50;61.40
41628;DHT22;27321;50.816;6.054;2023-02-28T01:21:33;2.50;61.40
41628;DHT22;27321;50.816;6.054;2023-02-28T01:24:35;2.40;61.80
41628;DHT22;27321;50.816;6.054;2023-02-28T01:27:36;2.30;61.80
41628;DHT22;27321;50.816;6.054;2023-02-28T01:30:37;2.30;62.00
41628;DHT22;27321;50.816;6.054;2023-02-28T01:33:38;2.30;62.20
41628;DHT22;27321;50.816;6.054;2023-02-28T01:36:39;2.30;62.00
41628;DHT22;27321;50.816;6.054;2023-02-28T01:39:40;2.20;62.00
41628;DHT22;27321;50.816;6.054;2023-02-28T01:42:41;2.30;62.20
41628;DHT22;27321;50.816;6.054;2023-02-28T01:45:42;2.20;62.00
41628;DHT22;27321;50.816;6.054;2023-02-28T01:49:04;2.10;62.40
41628;DHT22;27321;50.816;6.054;2023-02-28T01:52:07;2.10;62.70
41628;DHT22;27321;50.816;6.054;2023-02-28T01:55:11;2.10;62.90
41628;DHT22;27321;50.816;6.054;2023-02-28T01:58:13;2.10;62.50
41628;DHT22;27321;50.816;6.054;2023-02-28T02:01:14;2.10;62.80
41628;DHT22;27321;50.816;6.054;2023-02-28T02:04:23;2.10;62.60
41628;DHT22;27321;50.816;6.054;2023-02-28T02:07:33;2.10;62.60
41628;DHT22;27321;50.816;6.054;2023-02-28T02:10:45;2.10;62.60
41628;DHT22;27321;50.816;6.054;2023-02-28T02:17:22;2.00;62.50
41628;DHT22;27321;50.816;6.054;2023-02-28T02:24:40;2.00;62.40
41628;DHT22;27321;50.816;6.054;2023-02-28T02:41:53;2.00;62.80
41628;DHT22;27321;50.816;6.054;2023-02-28T02:45:00;1.90;62.70
41628;DHT22;27321;50.816;6.054;2023-02-28T02:48:08;1.90;62.70
41628;DHT22;27321;50.816;6.054;2023-02-28T02:51:14;1.90;62.60
41628;DHT22;27321;50.816;6.054;2023-02-28T02:54:21;1.80;63.30
41628;DHT22;27321;50.816;6.054;2023-02-28T02:57:31;1.90;63.00
41628;DHT22;27321;50.816;6.054;2023-02-28T03:00:45;1.90;62.80
41628;DHT22;27321;50.816;6.054;2023-02-28T03:03:48;1.90;63.10
41628;DHT22;27321;50.816;6.054;2023-02-28T03:06:51;2.00;62.90
41628;DHT22;27321;50.816;6.054;2023-02-28T03:09:57;2.00;62.70
41628;DHT22;27321;50.816;6.054;2023-02-28T03:24:03;1.90;62.90
41628;DHT22;27321;50.816;6.054;2023-02-28T03:27:16;1.90;62.50
41628;DHT22;27321;50.816;6.054;2023-02-28T03:33:51;2.00;62.50
41628;DHT22;27321;50.816;6.054;2023-02-28T03:36:59;2.00;62.50
41628;DHT22;27321;50.816;6.054;2023-02-28T03:40:16;2.00;62.80
41628;DHT22;27321;50.816;6.054;2023-02-28T03:43:31;2.00;62.50
41628;DHT22;27321;50.816;6.054;2023-02-28T03:46:38;2.00;62.20
41628;DHT22;27321;50.816;6.054;2023-02-28T03:50:17;2.00;62.80
41628;DHT22;27321;50.816;6.054;2023-02-28T03:56:38;1.90;62.90
41628;DHT22;27321;50.816;6.054;2023-02-28T04:00:12;1.90;63.10
41628;DHT22;27321;50.816;6.054;2023-02-28T04:03:17;2.00;63.50
41628;DHT22;27321;50.816;6.054;2023-02-28T04:06:20;2.10;63.10
41628;DHT22;27321;50.816;6.054;2023-02-28T04:09:22;2.20;62.70
41628;DHT22;27321;50.816;6.054;2023-02-28T04:12:24;2.30;62.50
41628;DHT22;27321;50.816;6.054;2023-02-28T04:15:25;2.20;62.50
41628;DHT22;27321;50.816;6.054;2023-02-28T04:18:29;2.20;62.00
41628;DHT22;27321;50.816;6.054;2023-02-28T04:21:52;2.10;62.00
41628;DHT22;27321;50.816;6.054;2023-02-28T04:24:53;2.10;62.00
41628;DHT22;27321;50.816;6.054;2023-02-28T04:27:57;2.10;62.20
41628;DHT22;27321;50.816;6.054;2023-02-28T04:31:03;2.10;62.30
41628;DHT22;27321;50.816;6.054;2023-02-28T04:34:06;2.10;62.00
41628;DHT22;27321;50.816;6.054;2023-02-28T04:37:07;2.20;62.00
41628;DHT22;27321;50.816;6.054;2023-02-28T04:40:09;2.20;62.10
41628;DHT22;27321;50.816;6.054;2023-02-28T04:43:10;2.20;61.90
41628;DHT22;27321;50.816;6.054;2023-02-28T04:46:11;2.20;61.80
41628;DHT22;27321;50.816;6.054;2023-02-28T04:49:13;2.20;61.90
41628;DHT22;27321;50.816;6.054;2023-02-28T04:52:13;2.30;62.10
41628;DHT22;27321;50.816;6.054;2023-02-28T04:55:15;2.30;61.80
41628;DHT22;27321;50.816;6.054;2023-02-28T04:58:16;2.20;61.70
41628;DHT22;27321;50.816;6.054;2023-02-28T05:01:26;2.20;62.20
41628;DHT22;27321;50.816;6.054;2023-02-28T05:04:29;2.10;62.20
41628;DHT22;27321;50.816;6.054;2023-02-28T05:07:30;2.00;62.60
41628;DHT22;27321;50.816;6.054;2023-02-28T05:10:31;1.90;63.40
41628;DHT22;27321;50.816;6.054;2023-02-28T05:13:33;1.90;63.20
41628;DHT22;27321;50.816;6.054;2023-02-28T05:16:36;1.90;63.20
41628;DHT22;27321;50.816;6.054;2023-02-28T05:19:37;1.80;63.50
41628;DHT22;27321;50.816;6.054;2023-02-28T05:22:39;1.80;63.50
41628;DHT22;27321;50.816;6.054;2023-02-28T05:25:40;1.90;63.20
41628;DHT22;27321;50.816;6.054;2023-02-28T05:28:41;1.80;63.30
41628;DHT22;27321;50.816;6.054;2023-02-28T05:31:42;1.80;63.20
41628;DHT22;27321;50.816;6.054;2023-02-28T05:34:44;1.80;63.30
41628;DHT22;27321;50.816;6.054;2023-02-28T05:37:45;1.70;63.50
41628;DHT22;27321;50.816;6.054;2023-02-28T05:40:46;1.70;63.70
41628;DHT22;27321;50.816;6.054;2023-02-28T05:43:48;1.70;63.50
41628;DHT22;27321;50.816;6.054;2023-02-28T05:46:49;1.60;63.70
41628;DHT22;27321;50.816;6.054;2023-02-28T05:49:50;1.60;63.90
41628;DHT22;27321;50.816;6.054;2023-02-28T05:52:51;1.60;63.90
41628;DHT22;27321;50.816;6.054;2023-02-28T05:55:52;1.60;63.90
41628;DHT22;27321;50.816;6.054;2023-02-28T05:58:54;1.60;64.00
41628;DHT22;27321;50.816;6.054;2023-02-28T06:01:55;1.60;64.10
41628;DHT22;27321;50.816;6.054;2023-02-28T06:04:58;1.60;63.90
41628;DHT22;27321;50.816;6.054;2023-02-28T06:07:59;1.70;63.60
41628;DHT22;27321;50.816;6.054;2023-02-28T06:11:03;1.60;63.80
41628;DHT22;27321;50.816;6.054;2023-02-28T06:14:09;1.60;64.00
41628;DHT22;27321;50.816;6.054;2023-02-28T06:17:15;1.60;63.80
41628;DHT22;27321;50.816;6.054;2023-02-28T06:20:16;1.50;64.00
41628;DHT22;27321;50.816;6.054;2023-02-28T06:23:17;1.50;64.10
41628;DHT22;27321;50.816;6.054;2023-02-28T06:26:19;1.40;64.10
41628;DHT22;27321;50.816;6.054;2023-02-28T06:29:20;1.40;64.70
41628;DHT22;27321;50.816;6.054;2023-02-28T06:32:22;1.40;64.80
41628;DHT22;27321;50.816;6.054;2023-02-28T06:35:23;1.50;64.50
41628;DHT22;27321;50.816;6.054;2023-02-28T06:38:24;1.50;64.40
41628;DHT22;27321;50.816;6.054;2023-02-28T06:41:26;1.50;64.50
41628;DHT22;27321;50.816;6.054;2023-02-28T06:44:27;1.50;64.70
41628;DHT22;27321;50.816;6.054;2023-02-28T06:47:37;1.50;64.90
41628;DHT22;27321;50.816;6.054;2023-02-28T06:50:39;1.60;64.70
41628;DHT22;27321;50.816;6.054;2023-02-28T06:53:40;1.60;64.30
41628;DHT22;27321;50.816;6.054;2023-02-28T06:56:41;1.60;64.40
41628;DHT22;27321;50.816;6.054;2023-02-28T06:59:42;1.60;64.70
41628;DHT22;27321;50.816;6.054;2023-02-28T07:02:43;1.50;64.30
41628;DHT22;27321;50.816;6.054;2023-02-28T07:05:45;1.50;64.60
41628;DHT22;27321;50.816;6.054;2023-02-28T07:08:46;1.50;65.00
41628;DHT22;27321;50.816;6.054;2023-02-28T07:11:47;1.50;64.50
41628;DHT22;27321;50.816;6.054;2023-02-28T07:14:48;1.60;64.90
41628;DHT22;27321;50.816;6.054;2023-02-28T07:17:49;1.60;64.10
41628;DHT22;27321;50.816;6.054;2023-02-28T07:20:50;1.60;64.10
41628;DHT22;27321;50.816;6.054;2023-02-28T07:23:51;1.70;63.80
41628;DHT22;27321;50.816;6.054;2023-02-28T07:26:52;1.70;63.80
41628;DHT22;27321;50.816;6.054;2023-02-28T07:29:53;1.70;63.60
41628;DHT22;27321;50.816;6.054;2023-02-28T07:32:55;1.80;63.30
41628;DHT22;27321;50.816;6.054;2023-02-28T07:36:05;1.80;63.00
41628;DHT22;27321;50.816;6.054;2023-02-28T07:39:15;1.60;62.80
41628;DHT22;27321;50.816;6.054;2023-02-28T07:42:16;1.60;62.80
41628;DHT22;27321;50.816;6.054;2023-02-28T07:45:19;1.50;63.20
41628;DHT22;27321;50.816;6.054;2023-02-28T07:48:20;1.50;62.80
41628;DHT22;27321;50.816;6.054;2023-02-28T07:51:22;1.50;63.30
41628;DHT22;27321;50.816;6.054;2023-02-28T07:54:23;1.50;63.40
41628;DHT22;27321;50.816;6.054;2023-02-28T07:57:24;1.60;62.90
41628;DHT22;27321;50.816;6.054;2023-02-28T08:00:26;1.60;62.60
41628;DHT22;27321;50.816;6.054;2023-02-28T08:03:27;1.60;63.00
41628;DHT22;27321;50.816;6.054;2023-02-28T08:06:28;1.60;62.10
41628;DHT22;27321;50.816;6.054;2023-02-28T08:09:29;1.50;61.90
41628;DHT22;27321;50.816;6.054;2023-02-28T08:12:31;1.50;63.20
41628;DHT22;27321;50.816;6.054;2023-02-28T08:15:32;1.50;62.20
41628;DHT22;27321;50.816;6.054;2023-02-28T08:18:33;1.50;61.80
41628;DHT22;27321;50.816;6.054;2023-02-28T08:21:34;1.50;61.70
41628;DHT22;27321;50.816;6.054;2023-02-28T08:24:35;1.60;62.30
41628;DHT22;27321;50.816;6.054;2023-02-28T08:27:36;1.60;61.50
41628;DHT22;27321;50.816;6.054;2023-02-28T08:30:37;1.60;61.20
41628;DHT22;27321;50.816;6.054;2023-02-28T08:33:41;1.60;61.30
41628;DHT22;27321;50.816;6.054;2023-02-28T08:36:43;1.70;61.00
41628;DHT22;27321;50.816;6.054;2023-02-28T08:39:45;1.50;60.40
41628;DHT22;27321;50.816;6.054;2023-02-28T08:42:49;1.60;60.70
41628;DHT22;27321;50.816;6.054;2023-02-28T08:45:55;1.70;60.70
41628;DHT22;27321;50.816;6.054;2023-02-28T08:48:59;1.90;60.60
41628;DHT22;27321;50.816;6.054;2023-02-28T08:52:01;2.00;58.70
41628;DHT22;27321;50.816;6.054;2023-02-28T08:55:02;2.00;58.40
41628;DHT22;27321;50.816;6.054;2023-02-28T08:58:04;2.10;58.00
41628;DHT22;27321;50.816;6.054;2023-02-28T09:01:14;2.20;58.00
41628;DHT22;27321;50.816;6.054;2023-02-28T09:04:28;2.30;57.30
41628;DHT22;27321;50.816;6.054;2023-02-28T09:07:31;2.40;57.00
41628;DHT22;27321;50.816;6.054;2023-02-28T09:10:32;2.50;56.00
41628;DHT22;27321;50.816;6.054;2023-02-28T09:13:33;2.50;55.40
41628;DHT22;27321;50.816;6.054;2023-02-28T09:16:34;2.40;55.50
41628;DHT22;27321;50.816;6.054;2023-02-28T09:19:35;2.50;53.90
41628;DHT22;27321;50.816;6.054;2023-02-28T09:22:37;2.50;53.40
41628;DHT22;27321;50.816;6.054;2023-02-28T09:25:48;2.60;53.10
41628;DHT22;27321;50.816;6.054;2023-02-28T09:28:52;2.70;53.10
41628;DHT22;27321;50.816;6.054;2023-02-28T09:31:53;2.80;52.50
41628;DHT22;27321;50.816;6.054;2023-02-28T09:34:54;3.00;52.20
41628;DHT22;27321;50.816;6.054;2023-02-28T09:37:56;3.00;50.70
41628;DHT22;27321;50.816;6.054;2023-02-28T09:41:02;3.00;50.70
41628;DHT22;27321;50.816;6.054;2023-02-28T09:44:04;3.10;49.80
41628;DHT22;27321;50.816;6.054;2023-02-28T09:50:31;3.10;49.10
41628;DHT22;27321;50.816;6.054;2023-02-28T09:53:36;3.20;48.90
41628;DHT22;27321;50.816;6.054;2023-02-28T09:56:42;3.20;48.10
41628;DHT22;27321;50.816;6.054;2023-02-28T10:00:05;3.30;47.70
41628;DHT22;27321;50.816;6.054;2023-02-28T10:03:38;3.30;47.90
41628;DHT22;27321;50.816;6.054;2023-02-28T10:06:48;3.30;47.10
41628;DHT22;27321;50.816;6.054;2023-02-28T10:09:53;3.10;47.00
41628;DHT22;27321;50.816;6.054;2023-02-28T10:13:01;3.10;47.30
41628;DHT22;27321;50.816;6.054;2023-02-28T10:16:09;3.30;47.50
41628;DHT22;27321;50.816;6.054;2023-02-28T10:19:40;3.40;47.20
41628;DHT22;27321;50.816;6.054;2023-02-28T10:23:17;3.40;46.50
41628;DHT22;27321;50.816;6.054;2023-02-28T10:26:21;3.60;47.00
41628;DHT22;27321;50.816;6.054;2023-02-28T10:29:24;3.70;44.90
41628;DHT22;27321;50.816;6.054;2023-02-28T10:32:30;3.70;45.10
41628;DHT22;27321;50.816;6.054;2023-02-28T10:35:33;4.00;44.50
41628;DHT22;27321;50.816;6.054;2023-02-28T10:38:37;4.00;43.90
41628;DHT22;27321;50.816;6.054;2023-02-28T10:41:42;4.10;41.90
41628;DHT22;27321;50.816;6.054;2023-02-28T10:44:43;4.00;42.00
41628;DHT22;27321;50.816;6.054;2023-02-28T10:50:56;4.20;41.60
41628;DHT22;27321;50.816;6.054;2023-02-28T10:53:58;4.20;42.00
41628;DHT22;27321;50.816;6.054;2023-02-28T11:00:35;4.30;40.30
41628;DHT22;27321;50.816;6.054;2023-02-28T11:03:36;4.40;40.40
41628;DHT22;27321;50.816;6.054;2023-02-28T11:06:37;4.30;40.70
41628;DHT22;27321;50.816;6.054;2023-02-28T11:09:41;4.30;40.50
41628;DHT22;27321;50.816;6.054;2023-02-28T11:12:44;4.30;40.70
41628;DHT22;27321;50.816;6.054;2023-02-28T11:15:54;4.30;40.50
41628;DHT22;27321;50.816;6.054;2023-02-28T11:18:59;4.20;41.40
41628;DHT22;27321;50.816;6.054;2023-02-28T11:22:02;4.30;41.40
41628;DHT22;27321;50.816;6.054;2023-02-28T11:25:10;4.40;41.10
41628;DHT22;27321;50.816;6.054;2023-02-28T11:31:29;4.40;40.90
41628;DHT22;27321;50.816;6.054;2023-02-28T11:34:31;4.50;41.10
41628;DHT22;27321;50.816;6.054;2023-02-28T11:37:33;4.70;41.00
41628;DHT22;27321;50.816;6.054;2023-02-28T11:47:32;4.80;41.80
41628;DHT22;27321;50.816;6.054;2023-02-28T11:51:14;4.90;41.10
41628;DHT22;27321;50.816;6.054;2023-02-28T12:08:40;5.10;40.70
41628;DHT22;27321;50.816;6.054;2023-02-28T12:12:31;5.30;41.20
41628;DHT22;27321;50.816;6.054;2023-02-28T12:25:32;5.20;39.90
41628;DHT22;27321;50.816;6.054;2023-02-28T12:28:46;5.20;39.90
41628;DHT22;27321;50.816;6.054;2023-02-28T12:32:03;5.10;40.50
41628;DHT22;27321;50.816;6.054;2023-02-28T12:35:21;5.20;41.10
41628;DHT22;27321;50.816;6.054;2023-02-28T12:38:30;5.10;40.10
41628;DHT22;27321;50.816;6.054;2023-02-28T12:48:47;5.10;39.90
41628;DHT22;27321;50.816;6.054;2023-02-28T12:52:00;5.00;40.30
41628;DHT22;27321;50.816;6.054;2023-02-28T12:55:26;5.00;39.50
41628;DHT22;27321;50.816;6.054;2023-02-28T12:58:45;5.10;40.40
41628;DHT22;27321;50.816;6.054;2023-02-28T13:09:16;5.30;39.60
41628;DHT22;27321;50.816;6.054;2023-02-28T13:12:17;5.40;39.30
41628;DHT22;27321;50.816;6.054;2023-02-28T13:15:25;5.60;40.10
41628;DHT22;27321;50.816;6.054;2023-02-28T13:18:40;5.70;40.50
41628;DHT22;27321;50.816;6.054;2023-02-28T13:21:46;5.90;41.10
41628;DHT22;27321;50.816;6.054;2023-02-28T13:24:52;6.00;39.00
41628;DHT22;27321;50.816;6.054;2023-02-28T13:27:55;6.00;41.00
41628;DHT22;27321;50.816;6.054;2023-02-28T13:31:06;6.00;39.10
41628;DHT22;27321;50.816;6.054;2023-02-28T13:34:15;5.90;39.40
41628;DHT22;27321;50.816;6.054;2023-02-28T13:40:30;6.00;40.30
41628;DHT22;27321;50.816;6.054;2023-02-28T13:54:06;5.90;43.00
41628;DHT22;27321;50.816;6.054;2023-02-28T14:08:10;5.80;42.50
41628;DHT22;27321;50.816;6.054;2023-02-28T14:11:35;5.90;41.40
41628;DHT22;27321;50.816;6.054;2023-02-28T14:17:40;6.00;41.00
41628;DHT22;27321;50.816;6.054;2023-02-28T14:20:42;6.00;40.80
41628;DHT22;27321;50.816;6.054;2023-02-28T14:27:33;5.80;40.70
41628;DHT22;27321;50.816;6.054;2023-02-28T14:34:29;5.70;40.80
41628;DHT22;27321;50.816;6.054;2023-02-28T14:37:38;5.70;40.70
41628;DHT22;27321;50.816;6.054;2023-02-28T14:40:41;5.60;41.30
41628;DHT22;27321;50.816;6.054;2023-02-28T14:43:55;5.70;40.80
41628;DHT22;27321;50.816;6.054;2023-02-28T14:47:00;5.60;40.40
41628;DHT22;27321;50.816;6.054;2023-02-28T14:50:17;5.70;41.10
41628;DHT22;27321;50.816;6.054;2023-02-28T14:53:21;5.60;40.30
41628;DHT22;27321;50.816;6.054;2023-02-28T14:56:30;5.60;40.50
41628;DHT22;27321;50.816;6.054;2023-02-28T14:59:35;5.60;41.60
41628;DHT22;27321;50.816;6.054;2023-02-28T15:02:38;5.70;40.80
41628;DHT22;27321;50.816;6.054;2023-02-28T15:05:39;5.70;41.20
41628;DHT22;27321;50.816;6.054;2023-02-28T15:08:40;5.80;41.10
41628;DHT22;27321;50.816;6.054;2023-02-28T15:11:45;5.80;40.60
41628;DHT22;27321;50.816;6.054;2023-02-28T15:18:05;5.80;40.80
41628;DHT22;27321;50.816;6.054;2023-02-28T15:21:13;5.90;41.20
41628;DHT22;27321;50.816;6.054;2023-02-28T15:27:51;5.80;41.00
41628;DHT22;27321;50.816;6.054;2023-02-28T15:31:02;5.80;40.90
41628;DHT22;27321;50.816;6.054;2023-02-28T15:34:06;5.80;40.90
41628;DHT22;27321;50.816;6.054;2023-02-28T15:40:40;5.80;40.90
41628;DHT22;27321;50.816;6.054;2023-02-28T15:43:43;5.80;41.50
41628;DHT22;27321;50.816;6.054;2023-02-28T15:46:58;5.90;41.10
41628;DHT22;27321;50.816;6.054;2023-02-28T15:50:09;5.90;40.10
41628;DHT22;27321;50.816;6.054;2023-02-28T15:53:16;5.80;40.60
41628;DHT22;27321;50.816;6.054;2023-02-28T15:56:35;5.70;40.40
41628;DHT22;27321;50.816;6.054;2023-02-28T16:00:00;5.70;40.50
41628;DHT22;27321;50.816;6.054;2023-02-28T16:03:39;5.60;40.40
41628;DHT22;27321;50.816;6.054;2023-02-28T16:06:47;5.60;40.50
41628;DHT22;27321;50.816;6.054;2023-02-28T16:10:02;5.50;40.90
41628;DHT22;27321;50.816;6.054;2023-02-28T16:13:04;5.50;40.90
41628;DHT22;27321;50.816;6.054;2023-02-28T16:16:05;5.40;41.40
41628;DHT22;27321;50.816;6.054;2023-02-28T16:19:08;5.50;41.50
41628;DHT22;27321;50.816;6.054;2023-02-28T16:22:09;5.50;41.50
41628;DHT22;27321;50.816;6.054;2023-02-28T16:25:15;5.50;41.30
41628;DHT22;27321;50.816;6.054;2023-02-28T16:28:24;5.50;41.80
41628;DHT22;27321;50.816;6.054;2023-02-28T16:31:32;5.50;41.40
41628;DHT22;27321;50.816;6.054;2023-02-28T16:34:36;5.50;41.90
41628;DHT22;27321;50.816;6.054;2023-02-28T16:37:37;5.50;41.90
41628;DHT22;27321;50.816;6.054;2023-02-28T16:40:38;5.50;42.20
41628;DHT22;27321;50.816;6.054;2023-02-28T16:43:39;5.50;42.50
41628;DHT22;27321;50.816;6.054;2023-02-28T16:46:40;5.50;42.70
41628;DHT22;27321;50.816;6.054;2023-02-28T16:49:41;5.30;42.90
41628;DHT22;27321;50.816;6.054;2023-02-28T16:52:42;5.20;43.00
41628;DHT22;27321;50.816;6.054;2023-02-28T16:55:44;5.10;43.40
41628;DHT22;27321;50.816;6.054;2023-02-28T16:58:45;5.20;43.70
41628;DHT22;27321;50.816;6.054;2023-02-28T17:01:47;5.20;43.80
41628;DHT22;27321;50.816;6.054;2023-02-28T17:04:48;5.30;44.20
41628;DHT22;27321;50.816;6.054;2023-02-28T17:07:49;5.30;43.90
41628;DHT22;27321;50.816;6.054;2023-02-28T17:10:50;5.20;43.70
41628;DHT22;27321;50.816;6.054;2023-02-28T17:13:51;5.20;43.80
41628;DHT22;27321;50.816;6.054;2023-02-28T17:16:54;5.20;44.00
41628;DHT22;27321;50.816;6.054;2023-02-28T17:19:55;5.20;44.10
41628;DHT22;27321;50.816;6.054;2023-02-28T17:22:56;5.20;44.30
41628;DHT22;27321;50.816;6.054;2023-02-28T17:25:58;5.30;44.80
41628;DHT22;27321;50.816;6.054;2023-02-28T17:28:59;5.30;44.70
41628;DHT22;27321;50.816;6.054;2023-02-28T17:32:00;5.30;45.30
41628;DHT22;27321;50.816;6.054;2023-02-28T17:35:01;5.30;45.60
41628;DHT22;27321;50.816;6.054;2023-02-28T17:38:02;5.20;46.30
41628;DHT22;27321;50.816;6.054;2023-02-28T17:41:03;5.20;46.60
41628;DHT22;27321;50.816;6.054;2023-02-28T17:44:04;5.20;47.10
41628;DHT22;27321;50.816;6.054;2023-02-28T17:47:05;5.20;47.50
41628;DHT22;27321;50.816;6.054;2023-02-28T17:50:09;5.20;47.80
41628;DHT22;27321;50.816;6.054;2023-02-28T17:53:13;5.10;48.00
41628;DHT22;27321;50.816;6.054;2023-02-28T17:56:20;5.10;48.20
41628;DHT22;27321;50.816;6.054;2023-02-28T17:59:25;5.10;48.50
41628;DHT22;27321;50.816;6.054;2023-02-28T18:02:33;5.10;48.50
41628;DHT22;27321;50.816;6.054;2023-02-28T18:05:34;5.00;49.00
41628;DHT22;27321;50.816;6.054;2023-02-28T18:08:36;5.00;49.20
41628;DHT22;27321;50.816;6.054;2023-02-28T18:11:37;5.00;49.20
41628;DHT22;27321;50.816;6.054;2023-02-28T18:14:50;5.00;49.30
41628;DHT22;27321;50.816;6.054;2023-02-28T18:17:51;4.90;49.60
41628;DHT22;27321;50.816;6.054;2023-02-28T18:20:52;4.80;49.60
41628;DHT22;27321;50.816;6.054;2023-02-28T18:23:54;4.80;49.90
41628;DHT22;27321;50.816;6.054;2023-02-28T18:26:55;4.80;50.10
41628;DHT22;27321;50.816;6.054;2023-02-28T18:29:56;4.70;50.50
41628;DHT22;27321;50.816;6.054;2023-02-28T18:33:02;4.70;50.50
41628;DHT22;27321;50.816;6.054;2023-02-28T18:36:04;4.60;50.90
41628;DHT22;27321;50.816;6.054;2023-02-28T18:39:06;4.60;51.20
41628;DHT22;27321;50.816;6.054;2023-02-28T18:42:08;4.60;51.10
41628;DHT22;27321;50.816;6.054;2023-02-28T18:45:10;4.60;51.30
41628;DHT22;27321;50.816;6.054;2023-02-28T18:48:11;4.60;51.40
41628;DHT22;27321;50.816;6.054;2023-02-28T18:51:14;4.50;51.90
41628;DHT22;27321;50.816;6.054;2023-02-28T18:54:20;4.50;52.00
41628;DHT22;27321;50.816;6.054;2023-02-28T18:57:21;4.60;51.90
41628;DHT22;27321;50.816;6.054;2023-02-28T19:00:22;4.50;52.30
41628;DHT22;27321;50.816;6.054;2023-02-28T19:03:25;4.50;52.10
41628;DHT22;27321;50.816;6.054;2023-02-28T19:06:27;4.50;52.30
41628;DHT22;27321;50.816;6.054;2023-02-28T19:09:28;4.40;52.50
41628;DHT22;27321;50.816;6.054;2023-02-28T19:12:33;4.40;52.80
41628;DHT22;27321;50.816;6.054;2023-02-28T19:15:37;4.30;53.30
41628;DHT22;27321;50.816;6.054;2023-02-28T19:18:38;4.30;53.40
41628;DHT22;27321;50.816;6.054;2023-02-28T19:21:40;4.30;53.40
41628;DHT22;27321;50.816;6.054;2023-02-28T19:24:41;4.20;53.50
41628;DHT22;27321;50.816;6.054;2023-02-28T19:27:42;4.10;53.90
41628;DHT22;27321;50.816;6.054;2023-02-28T19:30:47;4.00;54.00
41628;DHT22;27321;50.816;6.054;2023-02-28T19:33:49;4.00;54.20
41628;DHT22;27321;50.816;6.054;2023-02-28T19:36:52;4.00;54.30
41628;DHT22;27321;50.816;6.054;2023-02-28T19:39:53;3.90;55.00
41628;DHT22;27321;50.816;6.054;2023-02-28T19:42:56;3.90;54.80
41628;DHT22;27321;50.816;6.054;2023-02-28T19:45:57;3.90;54.70
41628;DHT22;27321;50.816;6.054;2023-02-28T19:48:59;3.80;55.20
41628;DHT22;27321;50.816;6.054;2023-02-28T19:52:00;3.70;55.20
41628;DHT22;27321;50.816;6.054;2023-02-28T19:55:01;3.70;55.40
41628;DHT22;27321;50.816;6.054;2023-02-28T19:58:02;3.80;55.20
41628;DHT22;27321;50.816;6.054;2023-02-28T20:01:13;3.70;55.50
41628;DHT22;27321;50.816;6.054;2023-02-28T20:04:15;3.70;55.50
41628;DHT22;27321;50.816;6.054;2023-02-28T20:07:17;3.70;55.80
41628;DHT22;27321;50.816;6.054;2023-02-28T20:10:19;3.60;56.00
41628;DHT22;27321;50.816;6.054;2023-02-28T20:13:20;3.60;56.20
41628;DHT22;27321;50.816;6.054;2023-02-28T20:16:23;3.60;56.20
41628;DHT22;27321;50.816;6.054;2023-02-28T20:19:28;3.60;56.70
41628;DHT22;27321;50.816;6.054;2023-02-28T20:22:29;3.60;56.60
41628;DHT22;27321;50.816;6.054;2023-02-28T20:25:30;3.60;56.70
41628;DHT22;27321;50.816;6.054;2023-02-28T20:28:32;3.50;56.70
41628;DHT22;27321;50.816;6.054;2023-02-28T20:31:34;3.50;56.90
41628;DHT22;27321;50.816;6.054;2023-02-28T20:34:39;3.50;57.10
41628;DHT22;27321;50.816;6.054;2023-02-28T20:37:40;3.50;57.10
41628;DHT22;27321;50.816;6.054;2023-02-28T20:44:18;3.40;57.10
41628;DHT22;27321;50.816;6.054;2023-02-28T20:47:19;3.30;57.60
41628;DHT22;27321;50.816;6.054;2023-02-28T20:50:20;3.40;57.70
41628;DHT22;27321;50.816;6.054;2023-02-28T20:53:22;3.40;57.90
41628;DHT22;27321;50.816;6.054;2023-02-28T20:56:24;3.40;57.90
41628;DHT22;27321;50.816;6.054;2023-02-28T20:59:25;3.40;57.70
41628;DHT22;27321;50.816;6.054;2023-02-28T21:02:26;3.40;57.80
41628;DHT22;27321;50.816;6.054;2023-02-28T21:05:27;3.40;57.80
41628;DHT22;27321;50.816;6.054;2023-02-28T21:08:28;3.50;57.80
41628;DHT22;27321;50.816;6.054;2023-02-28T21:11:31;3.50;57.60
41628;DHT22;27321;50.816;6.054;2023-02-28T21:14:33;3.50;57.50
41628;DHT22;27321;50.816;6.054;2023-02-28T21:17:34;3.60;57.50
41628;DHT22;27321;50.816;6.054;2023-02-28T21:20:35;3.60;57.30
41628;DHT22;27321;50.816;6.054;2023-02-28T21:23:37;3.60;57.10
41628;DHT22;27321;50.816;6.054;2023-02-28T21:26:39;3.70;57.20
41628;DHT22;27321;50.816;6.054;2023-02-28T21:29:41;3.70;57.10
41628;DHT22;27321;50.816;6.054;2023-02-28T21:32:42;3.60;57.30
41628;DHT22;27321;50.816;6.054;2023-02-28T21:35:43;3.60;57.30
41628;DHT22;27321;50.816;6.054;2023-02-28T21:38:45;3.50;57.40
41628;DHT22;27321;50.816;6.054;2023-02-28T21:41:47;3.50;57.50
41628;DHT22;27321;50.816;6.054;2023-02-28T21:44:47;3.50;57.60
41628;DHT22;27321;50.816;6.054;2023-02-28T21:47:49;3.50;57.50
41628;DHT22;27321;50.816;6.054;2023-02-28T21:50:55;3.40;57.40
41628;DHT22;27321;50.816;6.054;2023-02-28T21:53:57;3.40;58.00
41628;DHT22;27321;50.816;6.054;2023-02-28T21:56:59;3.40;57.80
41628;DHT22;27321;50.816;6.054;2023-02-28T22:00:02;3.40;57.80
41628;DHT22;27321;50.816;6.054;2023-02-28T22:03:13;3.40;57.80
41628;DHT22;27321;50.816;6.054;2023-02-28T22:06:19;3.30;58.30
41628;DHT22;27321;50.816;6.054;2023-02-28T22:09:22;3.30;58.30
41628;DHT22;27321;50.816;6.054;2023-02-28T22:12:24;3.20;58.60